Time,TemperatureF,DewpointF,PressureIn,WindDirection,WindDirectionDegrees,WindSpeedMPH,WindSpeedGustMPH,Humidity,HourlyPrecipIn,Conditions,Clouds,dailyrainin,SoftwareType,DateUTC
2013-05-05 01:15:00,30.6,19.9,29.85,North,6,0.0,0.0,64,0.00,,---,0.00,VWS V13.00,2013-05-05 09:15:00,
2013-05-05 01:20:00,30.4,20.8,29.85,ENE,60,0.0,0.0,67,0.00,,---,0.00,VWS V13.00,2013-05-05 09:20:00,
2013-05-05 01:25:00,30.4,20.8,29.85,ENE,60,0.0,0.0,67,0.00,,---,0.00,VWS V13.00,2013-05-05 09:25:00,
2013-05-05 01:30:00,30.4,20.4,29.85,North,3,0.0,0.0,66,0.00,,---,0.00,VWS V13.00,2013-05-05 09:30:00,
2013-05-05 01:35:00,30.4,20.8,29.85,North,11,0.0,0.0,67,0.00,,---,0.00,VWS V13.00,2013-05-05 09:35:00,
2013-05-05 01:40:00,30.6,20.6,29.85,North,11,0.0,0.0,66,0.00,,---,0.00,VWS V13.00,2013-05-05 09:40:00,
2013-05-05 01:45:00,30.6,20.6,29.85,North,0,0.0,0.0,66,0.00,,---,0.00,VWS V13.00,2013-05-05 09:45:00,
2013-05-05 01:50:00,30.6,20.6,29.85,North,0,0.0,0.0,66,0.00,,---,0.00,VWS V13.00,2013-05-05 09:50:00,
2013-05-05 01:55:00,30.7,20.4,29.85,North,8,0.0,0.0,65,0.00,,---,0.00,VWS V13.00,2013-05-05 09:55:00,
2013-05-05 02:00:00,30.7,20.4,29.85,North,4,0.0,0.0,65,0.00,,---,0.00,VWS V13.00,2013-05-05 10:00:00,
2013-05-05 02:05:00,30.6,20.6,29.85,North,6,0.0,0.0,66,0.00,,---,0.00,VWS V13.00,2013-05-05 10:05:00,
2013-05-05 02:10:00,30.6,20.2,29.85,NNE,17,0.0,0.0,65,0.00,,---,0.00,VWS V13.00,2013-05-05 10:10:00,
2013-05-05 02:15:00,30.6,20.2,29.85,North,1,0.0,0.0,65,0.00,,---,0.00,VWS V13.00,2013-05-05 10:15:00,
2013-05-05 02:20:00,31.3,18.6,29.85,North,1,0.0,0.0,59,0.00,,---,0.00,VWS V13.00,2013-05-05 10:20:00,
2013-05-05 02:25:00,31.6,17.8,29.85,NNE,14,0.0,0.0,56,0.00,,---,0.00,VWS V13.00,2013-05-05 10:25:00,
2013-05-05 02:30:00,31.8,17.1,29.85,NE,37,0.0,0.0,54,0.00,,---,0.00,VWS V13.00,2013-05-05 10:30:00,
2013-05-05 02:35:00,32.2,16.5,29.85,North,353,0.0,0.0,52,0.00,,---,0.00,VWS V13.00,2013-05-05 10:35:00,
2013-05-05 02:40:00,32.9,16.3,29.85,NNE,19,0.0,0.0,50,0.00,,---,0.00,VWS V13.00,2013-05-05 10:40:00,
2013-05-05 02:45:00,33.1,16.5,29.85,North,2,0.0,0.0,50,0.00,,---,0.00,VWS V13.00,2013-05-05 10:45:00,
2013-05-05 02:50:00,33.1,16.5,29.85,North,353,0.0,0.0,50,0.00,,---,0.00,VWS V13.00,2013-05-05 10:50:00,
2013-05-05 02:55:00,33.1,16.5,29.85,NNE,28,0.0,0.0,50,0.00,,---,0.00,VWS V13.00,2013-05-05 10:55:00,
2013-05-05 03:00:00,33.1,16.5,29.85,ENE,60,0.0,0.0,50,0.00,,---,0.00,VWS V13.00,2013-05-05 11:00:00,
2013-05-05 03:05:00,32.7,16.1,29.85,ENE,60,0.0,0.0,50,0.00,,---,0.00,VWS V13.00,2013-05-05 11:05:00,
2013-05-05 03:10:00,32.5,16.0,29.85,ENE,62,0.0,0.0,50,0.00,,---,0.00,VWS V13.00,2013-05-05 11:10:00,
2013-05-05 03:15:00,32.4,16.3,29.85,ENE,62,0.0,0.0,51,0.00,,---,0.00,VWS V13.00,2013-05-05 11:15:00,
2013-05-05 03:20:00,31.8,15.8,29.85,WNW,295,0.0,0.0,51,0.00,,---,0.00,VWS V13.00,2013-05-05 11:20:00,
2013-05-05 03:25:00,31.8,15.8,29.85,North,353,0.0,0.0,51,0.00,,---,0.00,VWS V13.00,2013-05-05 11:25:00,
2013-05-05 03:30:00,31.1,16.4,29.85,NNW,337,0.0,0.0,54,0.00,,---,0.00,VWS V13.00,2013-05-05 11:30:00,
2013-05-05 03:35:00,30.9,16.7,29.85,NNW,337,0.0,0.0,55,0.00,,---,0.00,VWS V13.00,2013-05-05 11:35:00,
2013-05-05 03:40:00,30.7,17.3,29.85,North,3,0.0,0.0,57,0.00,,---,0.00,VWS V13.00,2013-05-05 11:40:00,
2013-05-05 03:45:00,30.6,17.1,29.85,NNW,337,0.0,0.0,57,0.00,,---,0.00,VWS V13.00,2013-05-05 11:45:00,
2013-05-05 03:50:00,30.6,17.1,29.85,NW,313,0.0,0.0,57,0.00,,---,0.00,VWS V13.00,2013-05-05 11:50:00,
2013-05-05 03:55:00,30.2,17.2,29.85,NW,313,0.0,0.0,58,0.00,,---,0.00,VWS V13.00,2013-05-05 11:55:00,
2013-05-05 04:00:00,30.2,17.2,29.85,NW,313,0.0,0.0,58,0.00,,---,0.00,VWS V13.00,2013-05-05 12:00:00,
2013-05-05 04:05:00,30.4,17.4,29.85,NW,313,0.0,0.0,58,0.00,,---,0.00,VWS V13.00,2013-05-05 12:05:00,
2013-05-05 04:10:00,30.2,17.2,29.85,NW,313,0.0,0.0,58,0.00,,---,0.00,VWS V13.00,2013-05-05 12:10:00,
2013-05-05 04:15:00,30.2,17.2,29.85,NW,313,0.0,0.0,58,0.00,,---,0.00,VWS V13.00,2013-05-05 12:15:00,
2013-05-05 04:20:00,30.2,17.6,29.85,NW,313,0.0,0.0,59,0.00,,---,0.00,VWS V13.00,2013-05-05 12:20:00,
2013-05-05 04:25:00,29.7,17.1,29.85,NW,313,0.0,0.0,59,0.00,,---,0.00,VWS V13.00,2013-05-05 12:25:00,
2013-05-05 04:30:00,29.7,17.1,29.85,NW,313,0.0,0.0,59,0.00,,---,0.00,VWS V13.00,2013-05-05 12:30:00,
2013-05-05 04:35:00,29.7,17.1,29.85,NW,313,0.0,0.0,59,0.00,,---,0.00,VWS V13.00,2013-05-05 12:35:00,
2013-05-05 04:40:00,29.3,17.1,29.85,NW,313,0.0,0.0,60,0.00,,---,0.00,VWS V13.00,2013-05-05 12:40:00,
2013-05-05 04:47:00,28.9,16.8,29.85,WNW,291,0.0,0.0,60,0.00,,---,0.00,VWS V13.00,2013-05-05 12:47:00,
2013-05-05 04:52:00,28.6,16.9,29.85,WNW,291,0.0,0.0,61,0.00,,---,0.00,VWS V13.00,2013-05-05 12:52:00,
2013-05-05 04:57:00,28.6,16.9,29.85,WNW,291,0.0,0.0,61,0.00,,---,0.00,VWS V13.00,2013-05-05 12:57:00,
2013-05-05 05:02:00,28.8,17.4,29.85,WNW,291,0.0,0.0,62,0.00,,---,0.00,VWS V13.00,2013-05-05 13:02:00,
2013-05-05 05:07:00,28.6,17.2,29.85,WNW,291,0.0,0.0,62,0.00,,---,0.00,VWS V13.00,2013-05-05 13:07:00,
2013-05-05 05:12:00,28.4,17.4,29.85,WNW,291,0.0,0.0,63,0.00,,---,0.00,VWS V13.00,2013-05-05 13:12:00,
2013-05-05 05:17:00,28.4,17.8,29.85,WNW,291,0.0,0.0,64,0.00,,---,0.00,VWS V13.00,2013-05-05 13:17:00,
2013-05-05 05:22:00,28.4,17.8,29.85,WNW,291,0.0,0.0,64,0.00,,---,0.00,VWS V13.00,2013-05-05 13:22:00,
2013-05-05 05:29:00,28.2,17.6,29.85,WNW,291,0.0,0.0,64,0.00,,---,0.00,VWS V13.00,2013-05-05 13:29:00,
2013-05-05 05:34:00,28.2,18.0,29.85,WNW,291,0.0,0.0,65,0.00,,---,0.00,VWS V13.00,2013-05-05 13:34:00,
2013-05-05 05:39:00,28.0,17.8,29.85,WNW,291,0.0,0.0,65,0.00,,---,0.00,VWS V13.00,2013-05-05 13:39:00,
2013-05-05 05:44:00,28.0,17.8,29.85,WNW,291,0.0,0.0,65,0.00,,---,0.00,VWS V13.00,2013-05-05 13:44:00,
2013-05-05 05:49:00,28.2,18.3,29.85,WNW,291,0.0,0.0,66,0.00,,---,0.00,VWS V13.00,2013-05-05 13:49:00,
2013-05-05 05:54:00,28.2,18.3,29.85,WNW,291,0.0,0.0,66,0.00,,---,0.00,VWS V13.00,2013-05-05 13:54:00,
2013-05-05 05:59:00,28.0,18.2,29.85,WNW,291,0.0,0.0,66,0.00,,---,0.00,VWS V13.00,2013-05-05 13:59:00,
2013-05-05 06:04:00,28.0,18.2,29.85,WNW,291,0.0,0.0,66,0.00,,---,0.00,VWS V13.00,2013-05-05 14:04:00,
2013-05-05 06:10:00,28.0,18.2,29.85,WNW,291,0.0,0.0,66,0.00,,---,0.00,VWS V13.00,2013-05-05 14:10:00,
2013-05-05 06:15:00,27.9,19.4,29.85,NNE,19,0.0,0.0,70,0.00,,---,0.00,VWS V13.00,2013-05-05 14:15:00,
2013-05-05 06:20:00,27.7,19.2,29.85,NNE,19,0.0,0.0,70,0.00,,---,0.00,VWS V13.00,2013-05-05 14:20:00,
2013-05-05 06:25:00,27.9,19.7,29.85,NNE,19,0.0,0.0,71,0.00,,---,0.00,VWS V13.00,2013-05-05 14:25:00,
2013-05-05 06:30:00,27.9,19.7,29.88,NNE,19,0.0,0.0,71,0.00,,---,0.00,VWS V13.00,2013-05-05 14:30:00,
2013-05-05 06:35:00,27.7,19.5,29.91,NNW,341,0.0,0.0,71,0.00,,---,0.00,VWS V13.00,2013-05-05 14:35:00,
2013-05-05 06:40:00,27.9,19.7,29.91,NNW,341,0.0,0.0,71,0.00,,---,0.00,VWS V13.00,2013-05-05 14:40:00,
2013-05-05 06:45:00,27.9,19.7,29.91,NW,319,0.0,0.0,71,0.00,,---,0.00,VWS V13.00,2013-05-05 14:45:00,
2013-05-05 06:50:00,28.2,20.0,29.91,NW,319,0.0,0.0,71,0.00,,---,0.00,VWS V13.00,2013-05-05 14:50:00,
2013-05-05 06:55:00,28.4,20.2,29.91,NW,319,0.0,0.0,71,0.00,,---,0.00,VWS V13.00,2013-05-05 14:55:00,
2013-05-05 07:00:00,28.4,20.2,29.91,NW,319,0.0,0.0,71,0.00,,---,0.00,VWS V13.00,2013-05-05 15:00:00,
2013-05-05 07:05:00,28.4,20.2,29.91,NW,319,0.0,0.0,71,0.00,,---,0.00,VWS V13.00,2013-05-05 15:05:00,
2013-05-05 07:10:00,28.4,20.2,29.91,NW,319,0.0,0.0,71,0.00,,---,0.00,VWS V13.00,2013-05-05 15:10:00,
2013-05-05 07:15:00,28.6,20.4,29.91,NW,319,0.0,0.0,71,0.00,,---,0.00,VWS V13.00,2013-05-05 15:15:00,
2013-05-05 07:20:00,28.8,20.9,29.91,NW,319,0.0,0.0,72,0.00,,---,0.00,VWS V13.00,2013-05-05 15:20:00,
2013-05-05 07:25:00,28.9,21.1,29.91,NW,319,0.0,0.0,72,0.00,,---,0.00,VWS V13.00,2013-05-05 15:25:00,
2013-05-05 07:30:00,29.3,21.4,29.91,NW,319,0.0,0.0,72,0.00,,---,0.00,VWS V13.00,2013-05-05 15:30:00,
2013-05-05 07:35:00,29.3,21.4,29.91,NW,319,0.0,0.0,72,0.00,,---,0.00,VWS V13.00,2013-05-05 15:35:00,
2013-05-05 07:40:00,29.5,21.6,29.91,NW,319,0.0,0.0,72,0.00,,---,0.00,VWS V13.00,2013-05-05 15:40:00,
2013-05-05 07:45:00,30.2,22.6,29.91,NW,319,0.0,0.0,73,0.00,,---,0.00,VWS V13.00,2013-05-05 15:45:00,
2013-05-05 07:50:00,31.5,24.1,29.91,North,3,0.0,0.0,74,0.00,,---,0.00,VWS V13.00,2013-05-05 15:50:00,
2013-05-05 07:55:00,33.1,26.4,29.91,NNW,346,0.0,0.0,76,0.00,,---,0.00,VWS V13.00,2013-05-05 15:55:00,
2013-05-05 08:00:00,34.5,27.4,29.91,NNW,348,0.0,0.0,75,0.00,,---,0.00,VWS V13.00,2013-05-05 16:00:00,
2013-05-05 08:05:00,35.6,27.8,29.91,NNW,337,0.0,0.0,73,0.00,,---,0.00,VWS V13.00,2013-05-05 16:05:00,
2013-05-05 08:10:00,36.1,28.0,29.91,NNW,337,0.0,0.0,72,0.00,,---,0.00,VWS V13.00,2013-05-05 16:10:00,
2013-05-05 08:15:00,37.2,24.2,29.91,NNW,337,0.0,0.0,59,0.00,,---,0.00,VWS V13.00,2013-05-05 16:15:00,
2013-05-05 08:20:00,38.7,22.6,29.91,NNW,337,0.0,0.0,52,0.00,,---,0.00,VWS V13.00,2013-05-05 16:20:00,
2013-05-05 08:25:00,39.7,24.0,29.91,NNW,337,0.0,0.0,53,0.00,,---,0.00,VWS V13.00,2013-05-05 16:25:00,
2013-05-05 08:30:00,41.4,25.5,29.91,NNW,337,0.0,0.0,53,0.00,,---,0.00,VWS V13.00,2013-05-05 16:30:00,
2013-05-05 08:35:00,42.4,25.1,29.91,NNW,337,0.0,0.0,50,0.00,,---,0.00,VWS V13.00,2013-05-05 16:35:00,
2013-05-05 08:40:00,43.9,25.5,29.91,SSW,195,0.0,0.0,48,0.00,,---,0.00,VWS V13.00,2013-05-05 16:40:00,
2013-05-05 08:45:00,45.7,26.6,29.91,SSW,196,0.0,0.0,47,0.00,,---,0.00,VWS V13.00,2013-05-05 16:45:00,
2013-05-05 08:50:00,46.2,25.0,29.91,South,176,0.0,0.0,43,0.00,,---,0.00,VWS V13.00,2013-05-05 16:50:00,
2013-05-05 08:55:00,46.0,21.9,29.91,ESE,122,0.0,0.0,38,0.00,,---,0.00,VWS V13.00,2013-05-05 16:55:00,
2013-05-05 09:00:00,45.0,20.9,29.91,SSE,162,0.0,0.0,38,0.00,,---,0.00,VWS V13.00,2013-05-05 17:00:00,
2013-05-05 09:05:00,45.1,20.4,29.91,SSE,149,0.0,0.0,37,0.00,,---,0.00,VWS V13.00,2013-05-05 17:05:00,
2013-05-05 09:10:00,45.9,21.7,29.91,SSW,209,0.0,0.0,38,0.00,,---,0.00,VWS V13.00,2013-05-05 17:10:00,
2013-05-05 09:15:00,47.7,22.7,29.91,South,186,0.0,0.0,37,0.00,,---,0.00,VWS V13.00,2013-05-05 17:15:00,
2013-05-05 09:20:00,48.7,23.6,29.91,SSW,203,0.0,0.0,37,0.00,,---,0.00,VWS V13.00,2013-05-05 17:20:00,
2013-05-05 09:25:00,50.2,23.6,29.91,South,188,0.0,0.0,35,0.00,,---,0.00,VWS V13.00,2013-05-05 17:25:00,
2013-05-05 09:30:00,50.4,21.6,29.91,South,177,0.0,0.0,32,0.00,,---,0.00,VWS V13.00,2013-05-05 17:30:00,
2013-05-05 09:35:00,50.4,22.4,29.91,East,79,0.0,0.0,33,0.00,,---,0.00,VWS V13.00,2013-05-05 17:35:00,
2013-05-05 09:40:00,47.7,17.8,29.91,NNE,15,0.0,0.0,30,0.00,,---,0.00,VWS V13.00,2013-05-05 17:40:00,
2013-05-05 09:45:00,47.1,17.3,29.91,ENE,69,0.0,0.0,30,0.00,,---,0.00,VWS V13.00,2013-05-05 17:45:00,
2013-05-05 09:50:00,46.2,16.5,29.91,ENE,63,0.0,0.0,30,0.00,,---,0.00,VWS V13.00,2013-05-05 17:50:00,
2013-05-05 09:55:00,46.4,16.7,29.91,NNW,335,0.0,0.0,30,0.00,,---,0.00,VWS V13.00,2013-05-05 17:55:00,
2013-05-05 10:00:00,45.9,15.4,29.91,ENE,69,0.0,0.0,29,0.00,,---,0.00,VWS V13.00,2013-05-05 18:00:00,
2013-05-05 10:05:00,44.2,14.8,29.91,East,81,0.0,0.0,30,0.00,,---,0.00,VWS V13.00,2013-05-05 18:05:00,
2013-05-05 10:10:00,46.6,17.6,29.91,South,191,0.0,0.0,31,0.00,,---,0.00,VWS V13.00,2013-05-05 18:10:00,
2013-05-05 10:15:00,48.6,19.3,29.91,South,177,0.0,0.0,31,0.00,,---,0.00,VWS V13.00,2013-05-05 18:15:00,
2013-05-05 10:20:00,50.2,20.0,29.91,SW,227,0.0,0.0,30,0.00,,---,0.00,VWS V13.00,2013-05-05 18:20:00,
2013-05-05 10:25:00,49.1,20.5,29.91,SSW,198,0.0,0.0,32,0.00,,---,0.00,VWS V13.00,2013-05-05 18:25:00,
2013-05-05 10:30:00,50.4,20.9,29.91,South,190,0.0,0.0,31,0.00,,---,0.00,VWS V13.00,2013-05-05 18:30:00,
2013-05-05 10:35:00,51.6,22.7,29.91,WSW,242,0.0,0.0,32,0.00,,---,0.00,VWS V13.00,2013-05-05 18:35:00,
2013-05-05 10:39:00,53.2,24.2,29.91,SSW,207,0.0,0.0,32,0.00,,---,0.00,VWS V13.00,2013-05-05 18:39:00,
2013-05-05 10:44:00,54.1,22.6,29.91,SSE,162,0.0,0.0,29,0.00,,---,0.00,VWS V13.00,2013-05-05 18:44:00,
2013-05-05 10:49:00,52.5,24.3,29.91,SSW,202,0.0,0.0,33,0.00,,---,0.00,VWS V13.00,2013-05-05 18:49:00,
2013-05-05 10:54:00,53.8,23.1,29.91,South,179,0.0,0.0,30,0.00,,---,0.00,VWS V13.00,2013-05-05 18:54:00,
2013-05-05 10:59:00,53.8,25.4,29.91,SSW,209,0.0,0.0,33,0.00,,---,0.00,VWS V13.00,2013-05-05 18:59:00,
2013-05-05 11:04:00,53.6,21.3,29.91,South,189,0.0,0.0,28,0.00,,---,0.00,VWS V13.00,2013-05-05 19:04:00,
2013-05-05 11:09:00,54.3,25.1,29.91,SSW,208,0.0,0.0,32,0.00,,---,0.00,VWS V13.00,2013-05-05 19:09:00,
2013-05-05 11:14:00,53.6,21.3,29.91,South,176,0.0,0.0,28,0.00,,---,0.00,VWS V13.00,2013-05-05 19:14:00,
2013-05-05 11:19:00,53.2,21.0,29.91,SSE,155,0.0,0.0,28,0.00,,---,0.00,VWS V13.00,2013-05-05 19:19:00,
2013-05-05 11:24:00,50.9,19.0,29.91,ESE,118,0.0,0.0,28,0.00,,---,0.00,VWS V13.00,2013-05-05 19:24:00,
2013-05-05 11:29:00,49.6,17.9,29.91,SSE,156,0.0,0.0,28,0.00,,---,0.00,VWS V13.00,2013-05-05 19:29:00,
2013-05-05 11:35:00,50.4,20.1,29.91,SSE,162,0.0,0.0,30,0.00,,---,0.00,VWS V13.00,2013-05-05 19:35:00,
2013-05-05 11:40:00,49.1,17.4,29.91,SE,125,0.0,0.0,28,0.00,,---,0.00,VWS V13.00,2013-05-05 19:40:00,
2013-05-05 11:45:00,50.5,19.5,29.91,SSW,196,0.0,0.0,29,0.00,,---,0.00,VWS V13.00,2013-05-05 19:45:00,
2013-05-05 11:50:00,51.8,22.9,29.91,SSW,212,0.0,0.0,32,0.00,,---,0.00,VWS V13.00,2013-05-05 19:50:00,
2013-05-05 11:55:00,54.5,23.7,29.94,SSW,200,0.0,0.0,30,0.00,,---,0.00,VWS V13.00,2013-05-05 19:55:00,
2013-05-05 12:00:00,55.0,21.7,29.94,SSW,193,0.0,0.0,27,0.00,,---,0.00,VWS V13.00,2013-05-05 20:00:00,
2013-05-05 12:05:00,53.4,20.3,29.94,SSE,168,0.0,0.0,27,0.00,,---,0.00,VWS V13.00,2013-05-05 20:05:00,
2013-05-05 12:10:00,54.1,21.8,29.94,SSW,196,0.0,0.0,28,0.00,,---,0.00,VWS V13.00,2013-05-05 20:10:00,
2013-05-05 12:15:00,54.0,19.9,29.94,SSE,157,0.0,0.0,26,0.00,,---,0.00,VWS V13.00,2013-05-05 20:15:00,
2013-05-05 12:20:00,48.9,17.3,29.94,ESE,113,0.0,0.0,28,0.00,,---,0.00,VWS V13.00,2013-05-05 20:20:00,
2013-05-05 12:25:00,49.3,19.9,29.94,SE,140,0.0,0.0,31,0.00,,---,0.00,VWS V13.00,2013-05-05 20:25:00,
2013-05-05 12:30:00,51.3,20.1,29.94,SE,125,0.0,0.0,29,0.00,,---,0.00,VWS V13.00,2013-05-05 20:30:00,
2013-05-05 12:35:00,50.2,18.4,29.94,ENE,70,0.0,0.0,28,0.00,,---,0.00,VWS V13.00,2013-05-05 20:35:00,
2013-05-05 12:40:00,49.6,18.7,29.94,ESE,117,0.0,0.0,29,0.00,,---,0.00,VWS V13.00,2013-05-05 20:40:00,
2013-05-05 12:45:00,50.2,20.0,29.94,SSW,195,0.0,0.0,30,0.00,,---,0.00,VWS V13.00,2013-05-05 20:45:00,
2013-05-05 12:50:00,52.7,22.2,29.94,South,181,0.0,0.0,30,0.00,,---,0.00,VWS V13.00,2013-05-05 20:50:00,
2013-05-05 12:55:00,53.1,20.8,29.94,SSE,163,0.0,0.0,28,0.00,,---,0.00,VWS V13.00,2013-05-05 20:55:00,
2013-05-05 13:00:00,53.1,20.8,29.94,ESE,119,0.0,0.0,28,0.00,,---,0.00,VWS V13.00,2013-05-05 21:00:00,
2013-05-05 13:05:00,50.2,20.0,29.94,South,190,0.0,0.0,30,0.00,,---,0.00,VWS V13.00,2013-05-05 21:05:00,
2013-05-05 13:10:00,50.9,19.0,29.94,SSE,166,0.0,0.0,28,0.00,,---,0.00,VWS V13.00,2013-05-05 21:10:00,
2013-05-05 13:15:00,50.0,19.0,29.94,SSW,210,0.0,0.0,29,0.00,,---,0.00,VWS V13.00,2013-05-05 21:15:00,
2013-05-05 13:20:00,52.3,21.0,29.94,South,189,0.0,0.0,29,0.00,,---,0.00,VWS V13.00,2013-05-05 21:20:00,
2013-05-05 13:25:00,52.0,19.1,29.94,South,183,0.0,0.0,27,0.00,,---,0.00,VWS V13.00,2013-05-05 21:25:00,
2013-05-05 13:29:00,50.2,18.4,29.94,South,181,0.0,0.0,28,0.00,,---,0.00,VWS V13.00,2013-05-05 21:29:00,
2013-05-05 13:34:00,51.4,21.1,29.94,SE,144,0.0,0.0,30,0.00,,---,0.00,VWS V13.00,2013-05-05 21:34:00,
2013-05-05 13:39:00,52.2,20.9,29.94,SSW,201,0.0,0.0,29,0.00,,---,0.00,VWS V13.00,2013-05-05 21:39:00,
2013-05-05 13:44:00,53.2,24.2,29.94,South,184,0.0,0.0,32,0.00,,---,0.00,VWS V13.00,2013-05-05 21:44:00,
2013-05-05 13:49:00,54.7,23.9,29.94,SSE,156,0.0,0.0,30,0.00,,---,0.00,VWS V13.00,2013-05-05 21:49:00,
2013-05-05 13:54:00,54.3,21.1,29.94,SSE,157,0.0,0.0,27,0.00,,---,0.00,VWS V13.00,2013-05-05 21:54:00,
2013-05-05 13:59:00,50.9,19.0,29.94,South,177,0.0,0.0,28,0.00,,---,0.00,VWS V13.00,2013-05-05 21:59:00,
2013-05-05 14:04:00,50.2,18.4,29.94,South,175,0.0,0.0,28,0.00,,---,0.00,VWS V13.00,2013-05-05 22:04:00,
2013-05-05 14:09:00,49.8,18.9,29.94,South,178,0.0,0.0,29,0.00,,---,0.00,VWS V13.00,2013-05-05 22:09:00,
2013-05-05 14:14:00,50.7,18.8,29.94,South,178,0.0,0.0,28,0.00,,---,0.00,VWS V13.00,2013-05-05 22:14:00,
2013-05-05 14:19:00,48.0,17.3,29.94,ESE,115,0.0,0.0,29,0.00,,---,0.00,VWS V13.00,2013-05-05 22:19:00,
2013-05-05 14:24:00,47.8,17.1,29.94,South,170,0.0,0.0,29,0.00,,---,0.00,VWS V13.00,2013-05-05 22:24:00,
2013-05-05 14:29:00,48.6,17.8,29.94,South,182,0.0,0.0,29,0.00,,---,0.00,VWS V13.00,2013-05-05 22:29:00,
2013-05-05 14:34:00,50.4,20.1,29.94,South,180,0.0,0.0,30,0.00,,---,0.00,VWS V13.00,2013-05-05 22:34:00,
2013-05-05 14:39:00,48.9,18.9,29.94,South,180,0.0,0.0,30,0.00,,---,0.00,VWS V13.00,2013-05-05 22:39:00,
2013-05-05 14:44:00,48.7,18.7,29.94,SSE,156,0.0,0.0,30,0.00,,---,0.00,VWS V13.00,2013-05-05 22:44:00,
2013-05-05 14:49:00,49.5,20.9,29.94,South,187,0.0,0.0,32,0.00,,---,0.00,VWS V13.00,2013-05-05 22:49:00,
2013-05-05 14:54:00,51.3,22.4,29.94,South,179,0.0,0.0,32,0.00,,---,0.00,VWS V13.00,2013-05-05 22:54:00,
2013-05-05 14:59:00,50.5,20.3,29.94,SSW,201,0.0,0.0,30,0.00,,---,0.00,VWS V13.00,2013-05-05 22:59:00,
2013-05-05 15:04:00,49.3,20.7,29.94,South,175,0.0,0.0,32,0.00,,---,0.00,VWS V13.00,2013-05-05 23:04:00,
2013-05-05 15:09:00,50.5,24.6,29.94,SW,229,0.0,0.0,36,0.00,,---,0.00,VWS V13.00,2013-05-05 23:09:00,
2013-05-05 15:14:00,50.5,21.0,29.94,SSE,149,0.0,0.0,31,0.00,,---,0.00,VWS V13.00,2013-05-05 23:14:00,
2013-05-05 15:19:00,49.8,21.2,29.94,SSW,201,0.0,0.0,32,0.00,,---,0.00,VWS V13.00,2013-05-05 23:19:00,
2013-05-05 15:24:00,49.8,23.3,29.94,South,172,0.0,0.0,35,0.00,,---,0.00,VWS V13.00,2013-05-05 23:24:00,
2013-05-05 15:29:00,49.8,21.9,29.94,SE,140,0.0,0.0,33,0.00,,---,0.00,VWS V13.00,2013-05-05 23:29:00,
2013-05-05 15:34:00,51.8,22.9,29.94,SSE,157,0.0,0.0,32,0.00,,---,0.00,VWS V13.00,2013-05-05 23:34:00,
2013-05-05 15:39:00,51.8,22.9,29.94,SW,233,0.0,0.0,32,0.00,,---,0.00,VWS V13.00,2013-05-05 23:39:00,
2013-05-05 15:44:00,52.5,25.0,29.94,South,176,0.0,0.0,34,0.00,,---,0.00,VWS V13.00,2013-05-05 23:44:00,
2013-05-05 15:49:00,54.0,21.6,29.94,South,188,0.0,0.0,28,0.00,,---,0.00,VWS V13.00,2013-05-05 23:49:00,
2013-05-05 15:54:00,54.7,24.7,29.94,South,189,0.0,0.0,31,0.00,,---,0.00,VWS V13.00,2013-05-05 23:54:00,
2013-05-05 15:59:00,54.9,27.8,29.94,SSW,213,0.0,0.0,35,0.00,,---,0.00,VWS V13.00,2013-05-05 23:59:00,
2013-05-05 16:04:00,54.9,22.4,29.94,SSE,155,0.0,0.0,28,0.00,,---,0.00,VWS V13.00,2013-05-06 00:04:00,
2013-05-05 16:09:00,53.1,21.7,29.94,South,189,0.0,0.0,29,0.00,,---,0.00,VWS V13.00,2013-05-06 00:09:00,
2013-05-05 16:14:00,52.7,24.4,29.94,SSW,192,0.0,0.0,33,0.00,,---,0.00,VWS V13.00,2013-05-06 00:14:00,
2013-05-05 16:19:00,53.4,25.1,29.94,SSW,211,0.0,0.0,33,0.00,,---,0.00,VWS V13.00,2013-05-06 00:19:00,
2013-05-05 16:24:00,53.2,22.6,29.94,South,186,0.0,0.0,30,0.00,,---,0.00,VWS V13.00,2013-05-06 00:24:00,
2013-05-05 16:29:00,52.9,21.5,29.94,SSW,195,0.0,0.0,29,0.00,,---,0.00,VWS V13.00,2013-05-06 00:29:00,
2013-05-05 16:34:00,50.4,20.9,29.94,South,178,0.0,0.0,31,0.00,,---,0.00,VWS V13.00,2013-05-06 00:34:00,
2013-05-05 16:39:00,49.1,20.5,29.94,South,172,0.0,0.0,32,0.00,,---,0.00,VWS V13.00,2013-05-06 00:39:00,
2013-05-05 16:44:00,48.6,20.1,29.94,SE,136,0.0,0.0,32,0.00,,---,0.00,VWS V13.00,2013-05-06 00:44:00,
2013-05-05 16:49:00,47.8,19.4,29.94,SSE,150,0.0,0.0,32,0.00,,---,0.00,VWS V13.00,2013-05-06 00:49:00,
2013-05-05 16:54:00,48.6,20.8,29.94,ESE,117,0.0,0.0,33,0.00,,---,0.00,VWS V13.00,2013-05-06 00:54:00,
2013-05-05 16:59:00,50.4,26.4,29.94,SSW,199,0.0,0.0,39,0.00,,---,0.00,VWS V13.00,2013-05-06 00:59:00,
2013-05-05 17:04:00,52.0,26.5,29.94,West,266,0.0,0.0,37,0.00,,---,0.00,VWS V13.00,2013-05-06 01:04:00,
2013-05-05 17:09:00,51.1,23.7,29.94,East,80,0.0,0.0,34,0.00,,---,0.00,VWS V13.00,2013-05-06 01:09:00,
2013-05-05 17:14:00,49.8,21.9,29.94,SE,128,0.0,0.0,33,0.00,,---,0.00,VWS V13.00,2013-05-06 01:14:00,
2013-05-05 17:19:00,48.9,21.1,29.94,South,183,0.0,0.0,33,0.00,,---,0.00,VWS V13.00,2013-05-06 01:19:00,
2013-05-05 17:24:00,48.9,21.1,29.94,East,86,0.0,0.0,33,0.00,,---,0.00,VWS V13.00,2013-05-06 01:24:00,
2013-05-05 17:29:00,50.0,24.1,29.94,WSW,253,0.0,0.0,36,0.00,,---,0.00,VWS V13.00,2013-05-06 01:29:00,
2013-05-05 17:34:00,51.4,25.4,29.94,SW,234,0.0,0.0,36,0.00,,---,0.00,VWS V13.00,2013-05-06 01:34:00,
2013-05-05 17:39:00,51.6,20.4,29.94,North,357,0.0,0.0,29,0.00,,---,0.00,VWS V13.00,2013-05-06 01:39:00,
2013-05-05 17:44:00,51.6,20.4,29.94,WSW,244,0.0,0.0,29,0.00,,---,0.00,VWS V13.00,2013-05-06 01:44:00,
2013-05-05 17:49:00,48.4,18.4,29.94,NNE,17,0.0,0.0,30,0.00,,---,0.00,VWS V13.00,2013-05-06 01:49:00,
2013-05-05 21:35:00,39.9,18.7,29.94,NNE,24,0.0,0.0,42,0.00,,---,0.00,VWS V13.00,2013-05-06 05:35:00,
2013-05-05 21:36:00,39.9,18.7,29.94,NNE,24,0.0,0.0,42,0.00,,---,0.00,VWS V13.00,2013-05-06 05:36:00,
2013-05-05 21:41:00,39.7,18.5,29.94,NNW,342,0.0,0.0,42,0.00,,---,0.00,VWS V13.00,2013-05-06 05:41:00,
2013-05-05 21:46:00,39.7,19.1,29.94,North,353,0.0,0.0,43,0.00,,---,0.00,VWS V13.00,2013-05-06 05:46:00,
2013-05-05 21:52:00,39.2,19.1,29.94,North,357,0.0,0.0,44,0.00,,---,0.00,VWS V13.00,2013-05-06 05:52:00,
2013-05-05 21:57:00,38.8,19.8,29.94,NE,48,0.0,0.0,46,0.00,,---,0.00,VWS V13.00,2013-05-06 05:57:00,
2013-05-05 22:02:00,38.3,20.4,29.94,NE,46,0.0,0.0,48,0.00,,---,0.00,VWS V13.00,2013-05-06 06:02:00,
2013-05-05 22:07:00,38.1,20.7,29.94,North,357,0.0,0.0,49,0.00,,---,0.00,VWS V13.00,2013-05-06 06:07:00,
2013-05-05 22:12:00,37.9,20.5,29.94,North,4,0.0,0.0,49,0.00,,---,0.00,VWS V13.00,2013-05-06 06:12:00,
2013-05-05 22:17:00,37.9,20.5,29.97,North,0,0.0,0.0,49,0.00,,---,0.00,VWS V13.00,2013-05-06 06:17:00,
2013-05-05 22:22:00,37.9,20.5,29.97,NNW,348,0.0,0.0,49,0.00,,---,0.00,VWS V13.00,2013-05-06 06:22:00,
2013-05-05 22:27:00,37.6,20.6,29.97,North,353,0.0,0.0,50,0.00,,---,0.00,VWS V13.00,2013-05-06 06:27:00,
2013-05-05 22:32:00,37.6,20.6,29.97,North,353,0.0,0.0,50,0.00,,---,0.00,VWS V13.00,2013-05-06 06:32:00,
2013-05-05 22:37:00,37.4,20.5,29.97,North,353,0.0,0.0,50,0.00,,---,0.00,VWS V13.00,2013-05-06 06:37:00,
2013-05-05 22:42:00,37.4,20.5,29.97,North,353,0.0,0.0,50,0.00,,---,0.00,VWS V13.00,2013-05-06 06:42:00,
2013-05-05 22:47:00,37.4,20.5,29.97,North,353,0.0,0.0,50,0.00,,---,0.00,VWS V13.00,2013-05-06 06:47:00,
2013-05-05 22:52:00,37.2,20.3,29.97,North,353,0.0,0.0,50,0.00,,---,0.00,VWS V13.00,2013-05-06 06:52:00,
2013-05-05 22:57:00,36.9,20.4,29.97,North,353,0.0,0.0,51,0.00,,---,0.00,VWS V13.00,2013-05-06 06:57:00,
2013-05-05 23:02:00,36.7,20.3,29.97,North,353,0.0,0.0,51,0.00,,---,0.00,VWS V13.00,2013-05-06 07:02:00,
2013-05-05 23:07:00,36.7,20.3,29.97,North,353,0.0,0.0,51,0.00,,---,0.00,VWS V13.00,2013-05-06 07:07:00,
2013-05-05 23:12:00,36.5,20.1,29.97,North,353,0.0,0.0,51,0.00,,---,0.00,VWS V13.00,2013-05-06 07:12:00,
2013-05-05 23:19:00,36.3,19.9,29.97,North,353,0.0,0.0,51,0.00,,---,0.00,VWS V13.00,2013-05-06 07:19:00,
2013-05-05 23:24:00,36.1,19.8,29.97,North,353,0.0,0.0,51,0.00,,---,0.00,VWS V13.00,2013-05-06 07:24:00,
2013-05-05 23:29:00,35.8,19.4,29.97,North,353,0.0,0.0,51,0.00,,---,0.00,VWS V13.00,2013-05-06 07:29:00,
2013-05-05 23:34:00,35.8,19.4,29.97,North,353,0.0,0.0,51,0.00,,---,0.00,VWS V13.00,2013-05-06 07:34:00,
2013-05-05 23:39:00,35.1,18.8,29.97,North,353,0.0,0.0,51,0.00,,---,0.00,VWS V13.00,2013-05-06 07:39:00,
2013-05-05 23:44:00,34.9,18.6,29.97,North,353,0.0,0.0,51,0.00,,---,0.00,VWS V13.00,2013-05-06 07:44:00,
2013-05-05 23:49:00,34.7,18.9,29.97,North,353,0.0,0.0,52,0.00,,---,0.00,VWS V13.00,2013-05-06 07:49:00,
2013-05-05 23:54:00,34.7,18.9,29.97,North,353,0.0,0.0,52,0.00,,---,0.00,VWS V13.00,2013-05-06 07:54:00,
2013-05-05 23:59:00,34.7,18.9,29.97,North,353,0.0,0.0,52,0.00,,---,0.00,VWS V13.00,2013-05-06 07:59:00,